Time;durP1;ratioP1;P1;durP2;ratioP2;P2;SDS_P1;SDS_P2;PMS_P1;PMS_P2;Temp;Humidity;BMP_temperature;BMP_pressure;BME280_temperature;BME280_humidity;BME280_pressure;Samples;Min_cycle;Max_cycle;Signal;HPM_P1;HPM_P2
2022/01/18 00:01:50;;;;;;;205.15;154.00;;;21.90;40.20;;;;;;4804144;55;21530;-40
2022/01/18 00:06:52;;;;;;;207.27;157.57;;;21.80;40.10;;;;;;4762932;55;21093;-38
2022/01/18 00:12:14;;;;;;;198.70;149.48;;;21.90;40.20;;;;;;4737793;56;21487;-32
2022/01/18 00:17:25;;;;;;;199.40;152.85;;;21.80;40.10;;;;;;4755525;55;21639;-38
2022/01/18 00:22:28;;;;;;;195.50;147.68;;;21.80;40.00;;;;;;4738136;55;21099;-36
2022/01/18 00:27:29;;;;;;;189.93;145.62;;;21.80;40.00;;;;;;4768366;55;21693;-35
2022/01/18 00:33:01;;;;;;;191.95;144.45;;;21.80;40.00;;;;;;4759415;55;21113;-37
2022/01/18 00:38:14;;;;;;;186.90;141.55;;;21.80;39.90;;;;;;4809746;55;21496;-38
2022/01/18 00:43:15;;;;;;;188.62;144.62;;;21.80;39.90;;;;;;4760943;55;21567;-38
2022/01/18 00:48:17;;;;;;;183.32;139.10;;;21.80;39.90;;;;;;4757543;55;21032;-36
2022/01/18 00:53:19;;;;;;;180.30;139.90;;;21.80;40.50;;;;;;4742079;55;21014;-38
2022/01/18 00:58:20;;;;;;;175.25;130.50;;;21.80;39.90;;;;;;4738549;55;21559;-34
2022/01/18 01:03:21;;;;;;;173.98;134.02;;;21.80;39.80;;;;;;4738143;59;21089;-39
2022/01/18 01:08:22;;;;;;;174.55;133.50;;;21.80;39.80;;;;;;4740250;55;21480;-39
2022/01/18 01:13:24;;;;;;;167.73;130.70;;;21.80;39.70;;;;;;4744110;55;21002;-38
2022/01/18 01:43:37;;;;;;;153.10;120.25;;;21.70;39.40;;;;;;4798799;55;21066;-47
2022/01/18 01:48:40;;;;;;;151.35;118.62;;;21.80;39.40;;;;;;4759068;55;22123;-38
2022/01/18 01:53:41;;;;;;;143.75;112.32;;;21.70;39.40;;;;;;4761641;55;21581;-34
2022/01/18 01:58:42;;;;;;;143.87;112.80;;;21.70;39.30;;;;;;4737822;59;21018;-39
2022/01/18 02:03:43;;;;;;;146.93;113.82;;;21.70;39.30;;;;;;4747525;55;21006;-35
2022/01/18 02:08:44;;;;;;;135.98;108.72;;;21.80;39.30;;;;;;4738088;59;21033;-36
2022/01/18 02:13:48;;;;;;;142.98;112.68;;;21.70;39.20;;;;;;4761497;55;21041;-35
2022/01/18 02:24:10;;;;;;;141.80;110.50;;;21.70;39.10;;;;;;4737590;55;21123;-39
2022/01/18 02:29:12;;;;;;;133.55;107.12;;;21.70;39.10;;;;;;4738848;59;21014;-32
2022/01/18 02:34:18;;;;;;;132.48;104.68;;;21.70;39.00;;;;;;4758761;55;21041;-38
2022/01/18 02:39:22;;;;;;;127.90;101.20;;;21.70;39.00;;;;;;4742247;55;21018;-37
2022/01/18 02:44:25;;;;;;;125.07;98.93;;;21.70;39.00;;;;;;4755151;55;21018;-36
2022/01/18 02:49:27;;;;;;;126.40;102.05;;;21.70;38.90;;;;;;4750581;55;21081;-34
2022/01/18 02:54:29;;;;;;;126.72;99.32;;;21.70;38.90;;;;;;4745350;55;21484;-34
2022/01/18 03:05:33;;;;;;;114.65;90.40;;;21.70;38.80;;;;;;4739587;55;21034;-36
2022/01/18 03:10:35;;;;;;;114.35;89.13;;;21.70;38.70;;;;;;4774824;55;21093;-38
2022/01/18 03:15:36;;;;;;;115.50;92.72;;;21.70;38.70;;;;;;4738240;59;21006;-37
2022/01/18 03:20:38;;;;;;;111.88;88.30;;;21.80;38.70;;;;;;4747635;55;21175;-38
2022/01/18 03:25:40;;;;;;;111.88;88.15;;;21.70;38.60;;;;;;4754595;55;21531;-37
2022/01/18 03:30:44;;;;;;;109.85;88.80;;;21.70;38.60;;;;;;4756159;55;21551;-34
2022/01/18 03:35:50;;;;;;;109.53;87.43;;;21.70;38.50;;;;;;4737916;59;21559;-36
2022/01/18 03:40:54;;;;;;;107.65;84.47;;;21.70;38.50;;;;;;4751462;55;21050;-39
2022/01/18 03:46:00;;;;;;;102.53;81.37;;;21.70;38.50;;;;;;4753312;55;21018;-38
2022/01/18 03:51:04;;;;;;;99.13;78.47;;;21.70;38.40;;;;;;4746575;55;21623;-38
2022/01/18 03:56:05;;;;;;;99.03;79.97;;;21.70;38.40;;;;;;4749866;55;21054;-36
2022/01/18 04:01:05;;;;;;;98.20;78.47;;;21.70;38.40;;;;;;4737233;59;21426;-37
2022/01/18 04:06:07;;;;;;;97.70;76.22;;;21.70;38.30;;;;;;4738537;59;21061;-38
2022/01/18 04:11:08;;;;;;;93.97;74.28;;;21.80;38.30;;;;;;4748485;55;21543;-38
2022/01/18 04:16:09;;;;;;;97.70;75.25;;;21.70;38.30;;;;;;4737751;59;21053;-37
2022/01/18 04:32:12;;;;;;;92.32;72.70;;;21.80;38.10;;;;;;4750726;55;21129;-44
2022/01/18 04:37:13;;;;;;;87.53;70.22;;;21.90;37.90;;;;;;4738133;59;21551;-39
2022/01/18 04:42:29;;;;;;;85.65;68.68;;;21.90;37.80;;;;;;4745364;55;21091;-37
2022/01/18 04:52:49;;;;;;;82.30;66.62;;;22.00;37.80;;;;;;4756729;55;21029;-38
2022/01/18 04:57:53;;;;;;;79.85;63.70;;;22.10;37.70;;;;;;4773501;55;21500;-38
2022/01/18 05:02:54;;;;;;;81.68;65.45;;;22.10;37.70;;;;;;4743427;55;21129;-38
2022/01/18 05:07:59;;;;;;;78.75;62.13;;;22.10;37.70;;;;;;4741498;55;21460;-38
2022/01/18 05:13:11;;;;;;;78.12;60.83;;;22.20;37.70;;;;;;4786689;55;20998;-37
2022/01/18 05:25:05;;;;;;;72.75;58.15;;;22.20;37.70;;;;;;4738924;59;21042;-39
2022/01/18 05:30:07;;;;;;;75.62;57.33;;;22.20;37.70;;;;;;4746656;55;21009;-36
2022/01/18 05:35:08;;;;;;;72.78;57.40;;;22.20;37.70;;;;;;4782242;55;21073;-37
2022/01/18 05:40:10;;;;;;;72.40;57.50;;;22.30;37.90;;;;;;4768867;55;21006;-37
2022/01/18 05:45:12;;;;;;;69.72;57.00;;;22.30;37.90;;;;;;4737502;59;21006;-32
2022/01/18 05:50:13;;;;;;;65.50;53.00;;;22.30;38.00;;;;;;4752582;55;21002;-38
2022/01/18 05:55:14;;;;;;;69.43;55.12;;;22.30;38.10;;;;;;4738408;59;21022;-39
2022/01/18 06:00:23;;;;;;;66.22;53.55;;;22.30;38.20;;;;;;4737770;55;21914;-38
2022/01/18 06:10:45;;;;;;;65.40;52.90;;;22.30;38.20;;;;;;4738677;55;21097;-38
2022/01/18 06:15:46;;;;;;;64.47;51.63;;;22.30;38.20;;;;;;4743011;55;21033;-34
2022/01/18 06:20:48;;;;;;;62.90;51.90;;;22.30;38.20;;;;;;4753955;55;21516;-38
2022/01/18 06:25:48;;;;;;;64.00;51.58;;;22.30;38.10;;;;;;4749379;55;21014;-38
2022/01/18 06:30:49;;;;;;;60.83;50.55;;;22.30;38.20;;;;;;4774347;55;21507;-36
2022/01/18 06:35:50;;;;;;;62.33;49.72;;;22.30;38.10;;;;;;4742765;55;21002;-39
2022/01/18 06:40:51;;;;;;;60.97;48.72;;;22.30;38.10;;;;;;4746697;55;21504;-37
2022/01/18 06:45:53;;;;;;;60.80;49.45;;;22.30;38.10;;;;;;4738404;59;21002;-31
2022/01/18 06:50:54;;;;;;;64.30;49.90;;;22.30;38.10;;;;;;4782404;55;21591;-41
2022/01/18 06:55:55;;;;;;;61.58;48.83;;;22.40;38.00;;;;;;4738259;59;21074;-40
2022/01/18 07:00:56;;;;;;;59.38;47.62;;;22.30;38.60;;;;;;4766939;55;21127;-36
2022/01/18 07:05:57;;;;;;;57.92;46.72;;;22.40;37.90;;;;;;4753035;55;21516;-39
2022/01/18 07:10:58;;;;;;;59.30;48.50;;;22.40;37.90;;;;;;4766360;55;21496;-48
2022/01/18 07:15:59;;;;;;;61.28;48.05;;;22.40;37.80;;;;;;4737957;59;21069;-37
2022/01/18 07:21:00;;;;;;;62.05;49.13;;;22.40;37.80;;;;;;4744015;55;21081;-36
2022/01/18 07:26:01;;;;;;;60.78;49.17;;;22.40;38.40;;;;;;4825460;55;21089;-39
2022/01/18 07:31:02;;;;;;;59.90;49.13;;;22.40;37.60;;;;;;4773675;55;21006;-40
2022/01/18 07:36:03;;;;;;;63.92;49.55;;;22.40;37.60;;;;;;4738386;55;21562;-40
2022/01/18 07:41:04;;;;;;;62.13;49.30;;;22.40;37.50;;;;;;4750994;55;21018;-48
2022/01/18 07:46:05;;;;;;;62.50;50.22;;;22.50;37.50;;;;;;4741211;55;21825;-38
2022/01/18 07:51:06;;;;;;;61.80;49.72;;;22.50;37.50;;;;;;4737862;59;21051;-38
2022/01/18 07:56:07;;;;;;;63.83;51.03;;;22.40;37.40;;;;;;4783169;55;21057;-38
2022/01/18 08:01:08;;;;;;;68.37;52.65;;;22.50;37.40;;;;;;4748388;55;21552;-40
2022/01/18 08:06:09;;;;;;;68.75;54.63;;;22.50;37.40;;;;;;4737835;59;21042;-36
2022/01/18 08:11:10;;;;;;;140.43;102.07;;;22.50;37.40;;;;;;4781378;55;20994;-37
2022/01/18 08:16:33;;;;;;;149.62;108.35;;;22.30;33.40;;;;;;4739020;59;21105;-30
2022/01/18 08:21:34;;;;;;;150.07;107.82;;;22.00;32.20;;;;;;4781015;55;21509;-37
2022/01/18 08:26:35;;;;;;;144.87;104.95;;;21.80;33.10;;;;;;4755023;55;21152;-34
2022/01/18 08:31:36;;;;;;;141.50;102.10;;;21.90;33.60;;;;;;4763503;55;21552;-31
2022/01/18 08:36:38;;;;;;;143.02;103.05;;;22.00;34.20;;;;;;4759448;55;21045;-34
2022/01/18 08:41:40;;;;;;;140.35;101.78;;;22.00;34.50;;;;;;4744251;55;21009;-34
2022/01/18 08:46:42;;;;;;;134.35;98.78;;;22.00;35.00;;;;;;4737882;59;21599;-35
2022/01/18 08:51:42;;;;;;;135.18;98.72;;;22.00;35.50;;;;;;4763776;55;21468;-32
2022/01/18 08:56:43;;;;;;;134.18;99.07;;;22.00;35.80;;;;;;4745714;55;21062;-38
2022/01/18 09:01:44;;;;;;;129.95;94.57;;;21.90;36.30;;;;;;4737503;59;21033;-38
2022/01/18 09:06:48;;;;;;;129.85;94.78;;;21.90;36.30;;;;;;4759169;55;21572;-38
2022/01/18 09:11:49;;;;;;;131.10;95.15;;;21.90;37.00;;;;;;4752771;55;21487;-36
2022/01/18 09:16:50;;;;;;;131.02;94.55;;;21.90;37.40;;;;;;4756364;55;21548;-35
2022/01/18 09:21:51;;;;;;;129.00;94.18;;;21.80;37.60;;;;;;4762386;55;21061;-37
2022/01/18 09:26:53;;;;;;;123.97;93.20;;;21.80;37.80;;;;;;4752557;55;21102;-36
2022/01/18 09:31:55;;;;;;;125.68;91.55;;;21.80;38.10;;;;;;4737977;59;21476;-39
2022/01/18 09:36:56;;;;;;;139.90;102.38;;;21.80;38.20;;;;;;4750146;55;21030;-37
2022/01/18 09:42:03;;;;;;;128.75;96.70;;;21.80;38.30;;;;;;4750847;55;21640;-37
2022/01/18 09:47:05;;;;;;;129.50;93.00;;;21.70;38.10;;;;;;4743577;55;21006;-36
2022/01/18 09:52:06;;;;;;;131.57;98.62;;;21.70;38.20;;;;;;4765256;55;21075;-38
2022/01/18 09:57:07;;;;;;;136.75;100.07;;;21.70;38.20;;;;;;4748090;55;21103;-35
2022/01/18 10:02:11;;;;;;;134.48;101.03;;;21.70;38.50;;;;;;4757801;55;21519;-34
2022/01/18 10:07:12;;;;;;;141.23;102.28;;;21.60;39.00;;;;;;4754733;55;21460;-35
2022/01/18 10:12:15;;;;;;;135.98;101.32;;;21.60;38.80;;;;;;4786194;55;21002;-39
2022/01/18 10:17:32;;;;;;;133.10;97.68;;;21.60;39.00;;;;;;4740966;55;21534;-39
2022/01/18 10:22:40;;;;;;;137.12;100.22;;;21.60;39.10;;;;;;4742736;55;21508;-40
2022/01/18 10:27:42;;;;;;;132.23;99.32;;;21.60;39.30;;;;;;4746931;55;21499;-39
2022/01/18 10:33:00;;;;;;;139.60;101.07;;;21.60;39.50;;;;;;4744784;55;20994;-39
2022/01/18 10:38:00;;;;;;;138.98;101.15;;;21.60;39.70;;;;;;4744828;55;21555;-37
2022/01/18 10:43:05;;;;;;;142.02;103.35;;;21.60;39.80;;;;;;4736265;55;21058;-40
2022/01/18 10:48:16;;;;;;;139.82;101.40;;;21.60;40.00;;;;;;4738165;55;21547;-37
2022/01/18 10:53:20;;;;;;;140.80;104.32;;;21.60;40.10;;;;;;4736972;59;21129;-33
2022/01/18 10:58:22;;;;;;;133.57;98.45;;;21.60;40.20;;;;;;4742109;55;21487;-34
2022/01/18 11:03:23;;;;;;;140.50;103.38;;;21.60;40.40;;;;;;4737487;59;21014;-36
2022/01/18 11:08:25;;;;;;;142.75;106.05;;;21.60;40.50;;;;;;4744008;55;21468;-39
2022/01/18 11:13:32;;;;;;;138.30;101.75;;;21.60;40.40;;;;;;4740539;55;21002;-38
2022/01/18 11:18:36;;;;;;;139.15;102.97;;;21.60;40.40;;;;;;4775693;55;21532;-38
2022/01/18 11:23:38;;;;;;;143.32;104.28;;;21.60;40.30;;;;;;4737700;59;21857;-36
2022/01/18 11:28:41;;;;;;;139.68;102.55;;;21.60;40.20;;;;;;4748056;55;20986;-34
2022/01/18 11:33:53;;;;;;;143.35;102.78;;;21.50;40.10;;;;;;4775524;55;21079;-39
2022/01/18 11:39:00;;;;;;;139.73;103.57;;;21.50;40.70;;;;;;4756201;55;21515;-40
2022/01/18 11:44:19;;;;;;;131.37;96.17;;;21.50;40.00;;;;;;4754450;55;20997;-38
2022/01/18 11:49:22;;;;;;;131.87;97.57;;;21.50;40.10;;;;;;4752986;55;21476;-37
2022/01/18 11:54:56;;;;;;;130.10;95.93;;;21.50;40.10;;;;;;4766422;55;21077;-40
2022/01/18 12:00:19;;;;;;;133.93;100.55;;;21.50;40.00;;;;;;4740977;55;21552;-38
2022/01/18 12:05:21;;;;;;;132.85;98.65;;;21.40;40.00;;;;;;4751352;55;21113;-39
2022/01/18 12:10:43;;;;;;;133.57;97.72;;;21.40;39.90;;;;;;4737866;56;21504;-40
2022/01/18 12:15:50;;;;;;;126.65;94.47;;;21.40;39.90;;;;;;4748130;55;21038;-39
2022/01/18 12:21:06;;;;;;;124.93;94.15;;;21.40;39.80;;;;;;4741144;55;21576;-48
2022/01/18 12:26:37;;;;;;;125.32;94.62;;;21.40;39.90;;;;;;4759220;55;21606;-36
2022/01/18 12:32:19;;;;;;;127.18;94.72;;;21.40;40.00;;;;;;4740559;55;21542;-36
2022/01/18 12:37:32;;;;;;;126.62;94.45;;;21.40;40.10;;;;;;4738318;59;21535;-35
2022/01/18 12:48:26;;;;;;;137.85;97.57;;;21.40;40.40;;;;;;4750839;55;21006;-36
2022/01/18 12:53:30;;;;;;;131.35;97.68;;;21.40;40.50;;;;;;4758362;55;21005;-35
2022/01/18 12:58:40;;;;;;;128.98;93.12;;;21.40;40.60;;;;;;4747409;55;21074;-37
2022/01/18 13:03:47;;;;;;;124.20;94.93;;;21.30;40.60;;;;;;4744751;55;21026;-38
2022/01/18 13:08:52;;;;;;;127.22;94.93;;;21.30;40.70;;;;;;4737218;59;20990;-37
2022/01/18 13:14:02;;;;;;;127.43;96.70;;;21.30;40.80;;;;;;4767698;55;20998;-36
2022/01/18 13:25:04;;;;;;;126.72;96.80;;;21.30;41.00;;;;;;4737769;59;21082;-35
2022/01/18 13:30:31;;;;;;;125.12;94.68;;;21.30;41.00;;;;;;4737968;55;21983;-36
2022/01/18 13:35:32;;;;;;;124.38;93.22;;;21.30;41.10;;;;;;4737722;55;21789;-33
2022/01/18 13:40:36;;;;;;;126.38;96.95;;;21.30;41.20;;;;;;4742469;55;21472;-34
2022/01/18 13:45:44;;;;;;;125.68;92.72;;;21.30;41.30;;;;;;4766219;55;21456;-39
2022/01/18 13:50:55;;;;;;;157.35;114.00;;;21.30;41.10;;;;;;4752763;55;21053;-36
2022/01/18 13:56:31;;;;;;;164.50;122.82;;;21.20;38.60;;;;;;4741868;55;20978;-39
2022/01/18 14:01:41;;;;;;;153.75;117.43;;;21.20;36.80;;;;;;4737281;59;20998;-40
2022/01/18 14:06:43;;;;;;;157.55;116.45;;;21.10;37.20;;;;;;4743838;55;21468;-37
2022/01/18 14:11:50;;;;;;;150.15;110.30;;;21.20;37.20;;;;;;4750377;55;21683;-38
2022/01/18 14:16:54;;;;;;;147.65;110.70;;;21.10;37.20;;;;;;4757743;55;21085;-37
2022/01/18 14:21:57;;;;;;;145.23;110.85;;;21.10;37.40;;;;;;4744082;55;21519;-39
2022/01/18 14:27:01;;;;;;;150.18;113.00;;;21.10;37.40;;;;;;4775562;55;21034;-37
2022/01/18 14:32:07;;;;;;;147.70;111.57;;;21.10;37.50;;;;;;4746629;55;21484;-39
2022/01/18 14:37:10;;;;;;;150.67;111.73;;;21.10;38.30;;;;;;4754995;55;21026;-36
2022/01/18 14:42:11;;;;;;;143.90;110.50;;;21.10;37.60;;;;;;4737268;59;21104;-38
2022/01/18 14:47:33;;;;;;;141.18;103.10;;;21.10;37.70;;;;;;4738427;59;21480;-36
2022/01/18 14:52:34;;;;;;;139.70;107.32;;;21.10;37.70;;;;;;4754567;55;22186;-48
2022/01/18 14:57:35;;;;;;;140.85;108.32;;;21.10;37.80;;;;;;4784049;55;21057;-40
2022/01/18 15:02:37;;;;;;;143.13;110.40;;;21.00;38.40;;;;;;4756939;55;21014;-39
2022/01/18 15:07:39;;;;;;;145.73;111.28;;;21.10;37.90;;;;;;4766436;55;21472;-37
2022/01/18 15:12:43;;;;;;;130.65;101.43;;;21.00;37.90;;;;;;4750337;55;21073;-37
2022/01/18 15:17:48;;;;;;;140.48;108.50;;;21.00;37.90;;;;;;4789275;55;21492;-35
2022/01/18 15:22:51;;;;;;;131.87;103.40;;;21.00;38.00;;;;;;4737039;59;21587;-35
2022/01/18 15:27:52;;;;;;;133.35;106.30;;;21.00;38.10;;;;;;4777652;55;22581;-36
2022/01/18 15:32:55;;;;;;;135.75;103.82;;;21.00;38.40;;;;;;4757129;55;20999;-36
2022/01/18 15:37:56;;;;;;;135.88;104.87;;;21.00;38.70;;;;;;4747011;55;21049;-39
2022/01/18 15:42:57;;;;;;;134.50;102.45;;;21.10;39.00;;;;;;4739184;55;21009;-33
2022/01/18 15:47:57;;;;;;;130.43;103.03;;;21.10;39.30;;;;;;4737593;59;21528;-35
2022/01/18 15:52:58;;;;;;;130.75;104.30;;;21.00;39.40;;;;;;4760417;55;21491;-37
2022/01/18 15:58:01;;;;;;;136.23;105.15;;;21.00;39.40;;;;;;4774953;55;20997;-34
2022/01/18 16:03:03;;;;;;;132.48;106.75;;;20.90;39.50;;;;;;4738066;59;21507;-40
2022/01/18 16:08:05;;;;;;;136.37;104.57;;;20.90;39.50;;;;;;4757289;55;20986;-35
2022/01/18 16:13:06;;;;;;;134.85;108.20;;;20.90;39.50;;;;;;4788341;55;21057;-39
2022/01/18 16:18:07;;;;;;;131.12;104.43;;;20.80;39.40;;;;;;4737727;59;21085;-38
2022/01/18 16:23:08;;;;;;;138.32;110.55;;;20.80;39.40;;;;;;4743862;55;21135;-36
2022/01/18 16:28:09;;;;;;;145.20;113.03;;;20.80;39.30;;;;;;4761837;55;21451;-39
2022/01/18 16:33:10;;;;;;;140.98;113.15;;;20.80;39.40;;;;;;4737815;59;21109;-39
2022/01/18 16:38:11;;;;;;;138.65;111.18;;;20.70;39.30;;;;;;4769259;55;21532;-35
2022/01/18 16:43:12;;;;;;;137.73;111.80;;;20.70;39.30;;;;;;4746736;55;21089;-37
2022/01/18 16:48:14;;;;;;;142.45;113.90;;;20.70;39.30;;;;;;4752979;55;21078;-32
2022/01/18 16:53:15;;;;;;;147.48;115.95;;;20.70;39.30;;;;;;4747333;55;22276;-34
2022/01/18 16:58:17;;;;;;;141.95;113.10;;;20.70;39.30;;;;;;4738369;59;21110;-39
2022/01/18 17:03:20;;;;;;;149.00;118.32;;;20.70;39.30;;;;;;4747587;55;21188;-34
2022/01/18 17:08:21;;;;;;;147.60;116.35;;;20.60;39.20;;;;;;4751444;55;21517;-38
2022/01/18 17:13:22;;;;;;;149.00;117.43;;;20.60;39.20;;;;;;4746912;55;21010;-36
2022/01/18 17:18:23;;;;;;;148.13;117.30;;;20.70;39.30;;;;;;4763291;55;21046;-38
2022/01/18 17:23:24;;;;;;;144.93;115.85;;;20.60;39.20;;;;;;4738532;55;21488;-37
2022/01/18 17:28:25;;;;;;;148.73;117.40;;;20.60;39.20;;;;;;4752488;55;21082;-37
2022/01/18 17:33:26;;;;;;;150.00;119.13;;;20.60;39.20;;;;;;4746804;55;21651;-38
2022/01/18 17:38:27;;;;;;;152.48;120.47;;;20.60;39.20;;;;;;4740434;55;21109;-38
2022/01/18 17:43:28;;;;;;;145.80;114.53;;;20.60;39.20;;;;;;4758393;55;21508;-40
2022/01/18 17:48:29;;;;;;;147.57;118.65;;;20.60;39.20;;;;;;4747007;55;21511;-45
2022/01/18 17:53:30;;;;;;;148.35;117.95;;;20.50;39.20;;;;;;4739024;55;21045;-37
2022/01/18 17:58:31;;;;;;;151.12;118.37;;;20.60;39.20;;;;;;4738083;59;21504;-34
2022/01/18 18:03:32;;;;;;;153.05;120.97;;;20.50;39.10;;;;;;4752892;55;21014;-35
2022/01/18 18:08:35;;;;;;;149.43;118.40;;;20.50;39.20;;;;;;4763630;55;21527;-40
2022/01/18 18:13:36;;;;;;;151.93;121.05;;;20.50;39.20;;;;;;4801048;55;21476;-38
2022/01/18 18:18:37;;;;;;;154.90;122.03;;;20.50;39.20;;;;;;4819188;55;21411;-31
2022/01/18 18:23:38;;;;;;;149.25;118.85;;;20.50;39.20;;;;;;4752253;55;21114;-36
2022/01/18 18:28:39;;;;;;;154.63;119.35;;;20.50;39.10;;;;;;4755992;55;20990;-35
2022/01/18 18:33:40;;;;;;;156.98;124.20;;;20.50;39.20;;;;;;4740285;55;21029;-35
2022/01/18 18:38:43;;;;;;;153.27;120.43;;;20.50;39.10;;;;;;4761500;55;21042;-37
2022/01/18 18:44:07;;;;;;;153.05;122.82;;;20.40;39.10;;;;;;4739911;55;21591;-40
2022/01/18 18:49:10;;;;;;;147.00;119.65;;;20.40;39.10;;;;;;4748542;55;22094;-35
2022/01/18 18:54:12;;;;;;;160.40;123.65;;;20.50;39.20;;;;;;4737372;59;21014;-36
2022/01/18 18:59:42;;;;;;;160.30;123.05;;;20.50;39.20;;;;;;4758160;55;21503;-37
2022/01/18 19:04:48;;;;;;;155.00;122.82;;;20.40;39.10;;;;;;4829671;55;21528;-40
2022/01/18 19:09:48;;;;;;;160.27;124.22;;;20.40;39.10;;;;;;4749556;55;21009;-36
2022/01/18 19:14:49;;;;;;;157.50;125.57;;;20.40;39.10;;;;;;4775233;55;21596;-40
2022/01/18 19:19:50;;;;;;;161.05;127.12;;;20.40;39.10;;;;;;4781584;55;21022;-37
2022/01/18 19:24:51;;;;;;;165.15;125.95;;;20.40;39.10;;;;;;4758072;55;21010;-36
2022/01/18 19:29:55;;;;;;;162.93;127.15;;;20.40;39.10;;;;;;4761451;55;20986;-35
2022/01/18 19:34:56;;;;;;;165.50;129.48;;;20.40;39.30;;;;;;4746499;55;21480;-38
2022/01/18 19:39:57;;;;;;;164.40;128.68;;;20.40;39.20;;;;;;4739728;55;21022;-33
2022/01/18 19:44:57;;;;;;;165.30;128.77;;;20.40;39.20;;;;;;4776878;55;21054;-38
2022/01/18 19:49:59;;;;;;;165.43;128.43;;;20.40;39.20;;;;;;4739677;55;20994;-39
2022/01/18 19:55:00;;;;;;;165.35;130.05;;;20.30;39.20;;;;;;4764421;55;21551;-38
2022/01/18 20:00:03;;;;;;;170.90;132.87;;;20.30;39.20;;;;;;4749540;55;21078;-39
2022/01/18 20:05:06;;;;;;;173.20;133.37;;;20.30;39.20;;;;;;4760094;55;21034;-34
2022/01/18 20:10:10;;;;;;;171.37;134.57;;;20.30;39.10;;;;;;4747187;55;21468;-35
2022/01/18 20:15:11;;;;;;;180.12;137.62;;;20.30;39.20;;;;;;4746086;55;21086;-35
2022/01/18 20:20:12;;;;;;;173.68;135.00;;;20.30;39.20;;;;;;4744688;55;21094;-37
2022/01/18 20:25:14;;;;;;;175.18;135.60;;;20.30;39.20;;;;;;4758546;55;21126;-38
2022/01/18 20:30:19;;;;;;;174.15;135.80;;;20.30;39.20;;;;;;4744247;55;21083;-35
2022/01/18 20:35:23;;;;;;;177.52;137.35;;;20.30;39.30;;;;;;4755380;55;21104;-38
2022/01/18 20:40:27;;;;;;;183.35;138.65;;;20.30;39.30;;;;;;4761892;55;21070;-38
2022/01/18 20:45:30;;;;;;;178.65;138.18;;;20.30;39.30;;;;;;4754212;55;21480;-33
2022/01/18 20:50:31;;;;;;;176.07;133.82;;;20.30;39.30;;;;;;4768303;55;21025;-37
2022/01/18 20:55:32;;;;;;;180.82;139.98;;;20.30;39.40;;;;;;4743874;55;21465;-36
2022/01/18 21:00:33;;;;;;;181.35;140.40;;;20.30;39.30;;;;;;4787618;55;21030;-35
2022/01/18 21:05:36;;;;;;;194.20;144.45;;;20.20;39.30;;;;;;4774564;55;21034;-35
2022/01/18 21:10:37;;;;;;;185.30;139.85;;;20.20;39.30;;;;;;4738555;55;21074;-40
2022/01/18 21:15:38;;;;;;;185.65;141.02;;;20.20;39.30;;;;;;4749583;55;21089;-38
2022/01/18 21:20:40;;;;;;;184.68;142.85;;;20.20;39.30;;;;;;4737179;59;21540;-38
2022/01/18 21:25:41;;;;;;;186.55;142.48;;;20.20;39.30;;;;;;4756367;55;21069;-38
2022/01/18 21:30:41;;;;;;;195.48;144.98;;;20.20;39.30;;;;;;4764593;55;21571;-39
2022/01/18 21:35:43;;;;;;;189.10;145.15;;;20.20;39.30;;;;;;4740933;55;21062;-34
2022/01/18 21:40:45;;;;;;;191.45;145.65;;;20.20;39.20;;;;;;4737380;59;21464;-39
2022/01/18 21:45:45;;;;;;;194.15;145.05;;;20.20;39.20;;;;;;4754823;55;21006;-38
2022/01/18 21:50:46;;;;;;;196.68;145.90;;;20.20;39.20;;;;;;4761029;55;21468;-37
2022/01/18 21:55:47;;;;;;;188.23;142.70;;;20.20;39.20;;;;;;4741186;55;21086;-38
2022/01/18 22:00:48;;;;;;;196.25;147.82;;;20.20;39.20;;;;;;4742727;55;21155;-34
2022/01/18 22:05:49;;;;;;;199.30;149.12;;;20.10;39.20;;;;;;4760416;55;21571;-35
2022/01/18 22:10:50;;;;;;;199.32;149.02;;;20.20;39.30;;;;;;4742493;55;21480;-37
2022/01/18 22:15:50;;;;;;;202.93;147.43;;;20.10;39.10;;;;;;4741396;55;21101;-37
2022/01/18 22:20:51;;;;;;;200.90;148.70;;;20.10;39.10;;;;;;4815574;55;21022;-38
2022/01/18 22:25:52;;;;;;;202.43;148.10;;;20.10;39.10;;;;;;4769025;55;21073;-38
2022/01/18 22:30:53;;;;;;;201.32;150.32;;;20.10;39.80;;;;;;4756941;55;21452;-37
2022/01/18 22:35:54;;;;;;;202.65;151.65;;;20.10;39.10;;;;;;4737716;59;21002;-38
2022/01/18 22:52:44;;;;;;;204.77;152.15;;;20.10;39.10;;;;;;4739245;55;21058;-47
2022/01/18 22:57:45;;;;;;;214.40;155.82;;;20.10;39.00;;;;;;4829213;55;21026;-37
2022/01/18 23:02:46;;;;;;;212.60;155.85;;;20.10;39.10;;;;;;4738139;59;21460;-36
2022/01/18 23:07:47;;;;;;;211.18;156.68;;;20.10;39.00;;;;;;4770749;55;21086;-34
2022/01/18 23:12:48;;;;;;;214.35;154.70;;;20.10;38.90;;;;;;4751220;55;21110;-37
2022/01/18 23:17:49;;;;;;;213.18;156.07;;;20.10;39.00;;;;;;4802358;55;21014;-37
2022/01/18 23:22:50;;;;;;;214.02;155.30;;;20.10;39.00;;;;;;4773513;55;21447;-36
2022/01/18 23:27:52;;;;;;;214.15;154.95;;;20.10;39.00;;;;;;4752771;55;21323;-36
2022/01/18 23:32:53;;;;;;;216.30;162.20;;;20.10;39.00;;;;;;4758683;55;20990;-37
2022/01/18 23:38:03;;;;;;;213.82;157.07;;;20.00;38.90;;;;;;4744591;55;21477;-34
2022/01/18 23:43:04;;;;;;;215.73;156.30;;;20.00;38.90;;;;;;4788508;55;21629;-37
2022/01/18 23:48:05;;;;;;;212.68;154.27;;;20.00;38.80;;;;;;4738834;55;21093;-37
2022/01/18 23:53:07;;;;;;;215.80;157.27;;;20.00;38.80;;;;;;4738330;55;21132;-38
2022/01/18 23:58:08;;;;;;;221.00;157.27;;;20.00;39.40;;;;;;4737562;55;21606;-35
